createdAt,value
2023-04-28T00:02:24.657Z,38.57
2023-04-28T00:04:56.598Z,38.42
2023-04-28T00:07:28.324Z,38.57
2023-04-28T00:09:59.847Z,38.64
2023-04-28T00:12:32.846Z,39.08
2023-04-28T00:15:04.396Z,40.26
2023-04-28T00:17:35.934Z,40.90
2023-04-28T00:20:08.679Z,40.74
2023-04-28T00:22:40.377Z,41.36
2023-04-28T00:25:11.844Z,41.40
2023-04-28T00:27:43.270Z,40.88
2023-04-28T00:30:15.130Z,40.38
2023-04-28T00:32:46.640Z,40.42
2023-04-28T00:35:18.193Z,40.27
2023-04-28T00:37:49.613Z,40.30
2023-04-28T00:40:21.674Z,40.20
2023-04-28T00:42:54.219Z,40.31
2023-04-28T00:45:25.967Z,40.26
2023-04-28T00:47:58.272Z,39.87
2023-04-28T00:50:29.846Z,39.51
2023-04-28T00:53:01.688Z,39.19
2023-04-28T00:55:37.105Z,39.19
2023-04-28T00:58:08.743Z,39.37
2023-04-28T01:00:40.882Z,39.53
2023-04-28T01:03:12.576Z,40.10
2023-04-28T01:05:44.338Z,40.00
2023-04-28T01:08:19.106Z,41.51
2023-04-28T01:10:50.915Z,40.66
2023-04-28T01:13:24.168Z,40.46
2023-04-28T01:15:56.450Z,40.51
2023-04-28T01:18:28.131Z,40.60
2023-04-28T01:20:59.608Z,40.19
2023-04-28T01:23:31.838Z,40.49
2023-04-28T01:26:03.481Z,46.71
2023-04-28T01:28:35.104Z,48.92
2023-04-28T01:31:06.600Z,49.88
2023-04-28T01:33:38.300Z,49.09
2023-04-28T01:36:10.702Z,49.61
2023-04-28T01:38:42.070Z,50.67
2023-04-28T01:41:16.461Z,50.36
2023-04-28T01:43:47.934Z,50.15
2023-04-28T01:46:19.359Z,50.47
2023-04-28T01:48:50.767Z,50.04
2023-04-28T01:51:22.722Z,50.00
2023-04-28T01:53:54.597Z,50.81
2023-04-28T01:56:26.175Z,51.46
2023-04-28T01:58:59.133Z,51.74
2023-04-28T02:01:30.796Z,52.52
2023-04-28T02:04:02.532Z,51.77
2023-04-28T02:06:35.522Z,51.31
2023-04-28T02:09:06.902Z,50.88
2023-04-28T02:11:38.223Z,52.07
2023-04-28T02:14:09.703Z,50.75
2023-04-28T02:16:43.078Z,51.54
2023-04-28T02:19:16.689Z,52.81
2023-04-28T02:21:48.025Z,52.13
2023-04-28T02:24:19.370Z,52.81
2023-04-28T02:26:51.324Z,52.16
2023-04-28T02:29:22.709Z,53.39
2023-04-28T02:31:54.552Z,54.36
2023-04-28T02:34:27.158Z,53.52
2023-04-28T02:36:58.613Z,52.96
2023-04-28T02:39:33.056Z,53.26
2023-04-28T02:42:05.848Z,52.52
2023-04-28T02:44:37.373Z,52.84
2023-04-28T02:47:09.836Z,52.23
2023-04-28T02:49:41.309Z,52.22
2023-04-28T02:52:15.677Z,51.80
2023-04-28T02:54:49.248Z,51.58
2023-04-28T02:57:21.722Z,51.24
2023-04-28T02:59:53.235Z,50.79
2023-04-28T03:02:26.676Z,50.69
2023-04-28T03:04:58.300Z,49.28
2023-04-28T03:07:30.887Z,49.37
2023-04-28T03:10:02.442Z,49.79
2023-04-28T03:12:34.516Z,49.79
2023-04-28T03:15:08.632Z,49.98
2023-04-28T03:17:43.964Z,50.23
2023-04-28T03:20:16.018Z,50.23
2023-04-28T03:22:48.272Z,50.05
2023-04-28T03:25:20.030Z,50.04
2023-04-28T03:27:53.543Z,50.12
2023-04-28T03:30:26.025Z,49.98
2023-04-28T03:32:57.698Z,50.10
2023-04-28T03:35:29.418Z,50.26
2023-04-28T03:38:02.576Z,49.29
2023-04-28T03:40:34.358Z,49.26
2023-04-28T03:43:23.711Z,48.42
2023-04-28T03:46:11.748Z,47.10
2023-04-28T03:48:43.914Z,46.93
2023-04-28T03:51:15.837Z,47.88
2023-04-28T03:53:47.525Z,49.25
2023-04-28T03:56:19.246Z,48.18
2023-04-28T03:58:50.792Z,48.86
2023-04-28T04:01:24.691Z,49.04
2023-04-28T04:03:57.843Z,48.07
2023-04-28T04:06:30.008Z,47.88
2023-04-28T04:09:09.514Z,48.20
2023-04-28T04:11:44.267Z,47.79
2023-04-28T04:14:16.826Z,47.16
2023-04-28T04:16:53.469Z,46.83
2023-04-28T04:19:30.809Z,46.67
2023-04-28T04:22:03.424Z,46.69
2023-04-28T04:24:35.508Z,47.12
2023-04-28T04:27:07.640Z,47.08
2023-04-28T04:29:40.802Z,46.45
2023-04-28T04:32:17.498Z,46.25
2023-04-28T04:34:50.970Z,45.87
2023-04-28T04:37:30.375Z,45.55
2023-04-28T04:40:36.354Z,45.26
2023-04-28T04:42:56.869Z,45.24
2023-04-28T04:45:34.159Z,45.76
2023-04-28T04:48:06.154Z,46.34
2023-04-28T04:50:39.463Z,45.66
2023-04-28T04:53:14.592Z,45.54
2023-04-28T04:55:44.333Z,46.11
2023-04-28T04:58:16.100Z,45.64
2023-04-28T05:01:08.892Z,45.18
2023-04-28T05:03:45.532Z,45.21
2023-04-28T05:06:19.416Z,44.68
2023-04-28T05:08:53.885Z,45.75
2023-04-28T05:11:26.222Z,45.88
2023-04-28T05:13:57.867Z,45.96
2023-04-28T05:16:30.771Z,46.69
2023-04-28T05:19:14.994Z,46.27
2023-04-28T05:21:50.283Z,47.79
2023-04-28T05:24:23.673Z,46.79
2023-04-28T05:26:55.533Z,47.03
2023-04-28T05:29:29.545Z,46.84
2023-04-28T05:32:01.108Z,46.71
2023-04-28T05:34:32.927Z,46.57
2023-04-28T05:37:09.515Z,46.66
2023-04-28T05:39:42.848Z,47.03
2023-04-28T05:42:15.914Z,46.23
2023-04-28T05:44:50.174Z,46.24
2023-04-28T05:47:22.142Z,47.51
2023-04-28T05:49:54.833Z,48.21
2023-04-28T05:52:26.848Z,48.70
2023-04-28T05:54:58.861Z,49.15
2023-04-28T05:57:49.353Z,48.86
2023-04-28T06:00:12.317Z,48.73
2023-04-28T06:02:43.683Z,48.54
2023-04-28T06:05:18.214Z,48.22
2023-04-28T06:07:51.572Z,48.29
2023-04-28T06:10:27.918Z,48.09
2023-04-28T06:13:02.786Z,47.86
2023-04-28T06:15:36.829Z,47.37
2023-04-28T06:18:09.946Z,47.42
2023-04-28T06:20:41.709Z,47.33
2023-04-28T06:23:13.808Z,47.96
2023-04-28T06:25:47.151Z,47.64
2023-04-28T06:28:19.338Z,47.31
2023-04-28T06:30:51.271Z,46.86
2023-04-28T06:33:22.729Z,46.50
2023-04-28T06:35:54.533Z,46.47
2023-04-28T06:38:26.288Z,46.69
2023-04-28T06:40:58.149Z,46.86
2023-04-28T06:43:30.205Z,46.76
2023-04-28T06:46:03.551Z,46.96
2023-04-28T06:48:35.500Z,46.40
2023-04-28T06:51:08.746Z,46.57
2023-04-28T06:53:40.946Z,45.72
2023-04-28T06:56:14.053Z,44.87
2023-04-28T06:58:55.210Z,44.44
2023-04-28T07:01:27.396Z,44.29
2023-04-28T07:04:03.154Z,45.63
2023-04-28T07:06:37.470Z,46.45
2023-04-28T07:09:09.222Z,47.55
2023-04-28T07:11:52.016Z,47.81
2023-04-28T07:15:12.894Z,47.64
2023-04-28T07:17:36.566Z,48.15
2023-04-28T07:20:12.688Z,47.31
2023-04-28T07:22:45.412Z,46.32
2023-04-28T07:25:17.609Z,45.24
2023-04-28T07:27:50.601Z,44.59
2023-04-28T07:30:28.323Z,44.99
2023-04-28T07:33:21.335Z,45.18
2023-04-28T07:35:55.370Z,45.42
2023-04-28T07:38:37.856Z,45.37
2023-04-28T07:41:11.617Z,45.69
2023-04-28T07:43:44.427Z,45.79
2023-04-28T07:46:16.357Z,45.83
2023-04-28T07:48:48.242Z,46.70
2023-04-28T07:51:19.864Z,47.57
2023-04-28T07:53:52.809Z,48.38
2023-04-28T07:56:24.588Z,50.47
2023-04-28T07:58:56.354Z,50.14
2023-04-28T08:01:29.339Z,49.27
2023-04-28T08:04:01.415Z,48.79
2023-04-28T08:06:37.776Z,48.24
2023-04-28T08:09:10.840Z,48.99
2023-04-28T08:11:42.996Z,48.97
2023-04-28T08:14:18.415Z,48.12
2023-04-28T08:16:50.719Z,48.87
2023-04-28T08:19:22.661Z,50.04
2023-04-28T08:21:55.515Z,50.80
2023-04-28T08:24:29.361Z,51.06
2023-04-28T08:27:03.545Z,51.70
2023-04-28T08:29:36.137Z,50.33
2023-04-28T08:32:09.364Z,50.45
2023-04-28T08:34:41.015Z,50.09
2023-04-28T08:37:14.077Z,50.10
2023-04-28T08:39:45.694Z,49.80
2023-04-28T08:42:19.510Z,50.75
2023-04-28T08:44:52.729Z,50.35
2023-04-28T08:47:24.703Z,51.39
2023-04-28T08:49:58.210Z,52.39
2023-04-28T08:52:31.348Z,51.64
2023-04-28T08:55:04.752Z,51.85
2023-04-28T08:57:38.673Z,53.06
2023-04-28T09:00:11.767Z,54.43
2023-04-28T09:02:43.710Z,54.44
2023-04-28T09:05:15.982Z,55.01
2023-04-28T09:07:48.835Z,53.98
2023-04-28T09:10:21.902Z,53.83
2023-04-28T09:12:55.225Z,54.37
2023-04-28T09:15:33.297Z,55.32
2023-04-28T09:18:05.063Z,55.58
2023-04-28T09:20:37.846Z,54.54
2023-04-28T09:23:16.273Z,55.06
2023-04-28T09:26:15.861Z,54.89
2023-04-28T09:28:47.801Z,56.29
2023-04-28T09:31:25.991Z,55.11
2023-04-28T09:34:01.006Z,55.88
2023-04-28T09:36:32.936Z,57.41
2023-04-28T09:39:04.692Z,56.60
2023-04-28T09:41:40.700Z,57.18
2023-04-28T09:44:14.837Z,56.70
2023-04-28T09:46:47.528Z,55.35
2023-04-28T09:49:19.167Z,56.38
2023-04-28T09:51:51.238Z,52.53
2023-04-28T09:54:27.238Z,47.89
2023-04-28T09:56:58.819Z,48.27
2023-04-28T09:59:30.626Z,49.67
2023-04-28T10:02:12.904Z,50.81
2023-04-28T10:04:37.279Z,51.06
2023-04-28T10:07:10.674Z,51.11
2023-04-28T10:09:44.427Z,50.96
2023-04-28T10:12:16.327Z,51.49
2023-04-28T10:14:49.911Z,51.08
2023-04-28T10:17:21.919Z,51.15
2023-04-28T10:19:55.129Z,51.27
2023-04-28T10:22:29.817Z,51.02
2023-04-28T10:25:06.481Z,51.13
2023-04-28T10:27:38.584Z,51.54
2023-04-28T10:30:26.508Z,51.78
2023-04-28T10:32:48.578Z,51.54
2023-04-28T10:35:38.482Z,52.00
2023-04-28T10:38:11.002Z,52.05
2023-04-28T10:40:43.495Z,52.38
2023-04-28T10:43:15.710Z,52.29
2023-04-28T10:46:05.113Z,55.62
2023-04-28T10:48:56.497Z,59.60
2023-04-28T10:51:51.984Z,63.14
2023-04-28T10:54:23.898Z,64.74
2023-04-28T10:57:12.824Z,65.72
2023-04-28T10:59:44.641Z,66.20
2023-04-28T11:02:36.845Z,66.94
2023-04-28T11:05:22.514Z,67.03
2023-04-28T11:08:13.306Z,67.33
2023-04-28T11:11:14.809Z,67.62
2023-04-28T11:13:51.040Z,67.76
2023-04-28T11:16:23.755Z,68.00
2023-04-28T11:18:59.978Z,67.85
2023-04-28T11:21:33.893Z,67.53
2023-04-28T11:24:12.255Z,67.38
2023-04-28T11:26:46.964Z,67.43
2023-04-28T11:29:19.128Z,67.41
2023-04-28T11:31:53.972Z,67.29
2023-04-28T11:34:47.429Z,66.99
2023-04-28T11:37:24.273Z,67.40
2023-04-28T11:39:59.068Z,68.10
2023-04-28T11:42:32.090Z,68.16
2023-04-28T11:45:22.761Z,68.56
2023-04-28T11:47:56.100Z,68.81
2023-04-28T11:50:38.026Z,68.43
2023-04-28T11:53:09.736Z,68.79
2023-04-28T11:55:41.520Z,68.64
2023-04-28T11:58:24.186Z,68.63
2023-04-28T12:01:12.338Z,68.34
2023-04-28T12:03:47.656Z,68.68
2023-04-28T12:06:21.260Z,68.98
2023-04-28T12:08:54.810Z,69.20
2023-04-28T12:11:26.539Z,69.49
2023-04-28T12:14:11.023Z,69.75
2023-04-28T12:16:48.195Z,70.13
2023-04-28T12:19:21.192Z,71.37
2023-04-28T12:22:03.327Z,71.56
2023-04-28T12:24:37.374Z,71.76
2023-04-28T12:27:20.781Z,72.34
2023-04-28T12:29:52.909Z,72.50
2023-04-28T12:32:40.197Z,72.68
2023-04-28T12:35:11.929Z,73.32
2023-04-28T12:37:44.473Z,73.42
2023-04-28T12:40:17.736Z,73.42
2023-04-28T12:42:50.262Z,73.83
2023-04-28T12:45:22.017Z,74.21
2023-04-28T12:47:53.641Z,74.46
2023-04-28T12:50:25.992Z,74.51
2023-04-28T12:52:57.948Z,74.28
2023-04-28T12:55:30.475Z,74.06
2023-04-28T12:58:03.178Z,73.81
2023-04-28T13:00:34.862Z,73.53
2023-04-28T13:03:07.307Z,73.56
2023-04-28T13:05:39.999Z,73.40
2023-04-28T13:08:12.961Z,73.37
2023-04-28T13:10:45.946Z,72.96
2023-04-28T13:13:17.885Z,72.87
2023-04-28T13:15:49.639Z,73.07
2023-04-28T13:18:23.290Z,72.82
2023-04-28T13:20:56.838Z,73.12
2023-04-28T13:23:28.470Z,72.98
2023-04-28T13:26:00.171Z,72.86
2023-04-28T13:28:31.806Z,73.24
2023-04-28T13:31:04.650Z,73.59
2023-04-28T13:33:36.693Z,73.17
2023-04-28T13:36:10.230Z,72.68
2023-04-28T13:38:45.753Z,72.63
2023-04-28T13:41:19.602Z,72.46
2023-04-28T13:43:53.493Z,72.54
2023-04-28T13:53:35.362Z,72.97
2023-04-28T13:56:13.209Z,73.41
2023-04-28T13:58:45.385Z,73.89
2023-04-28T14:01:22.552Z,73.65
2023-04-28T14:04:22.304Z,73.50
2023-04-28T14:07:17.270Z,73.86
2023-04-28T14:10:00.743Z,73.78
2023-04-28T14:12:36.033Z,73.78
2023-04-28T14:15:21.362Z,73.75
2023-04-28T14:18:23.515Z,73.91
2023-04-28T14:28:31.491Z,73.76
2023-04-28T14:31:19.909Z,73.95
2023-04-28T14:33:57.989Z,74.07
2023-04-28T14:36:35.936Z,74.18
2023-04-28T14:39:11.773Z,74.08
2023-04-28T14:41:43.446Z,74.01
2023-04-28T14:44:15.396Z,73.76
2023-04-28T14:46:47.357Z,73.81
2023-04-28T14:49:19.643Z,73.61
2023-04-28T14:51:51.958Z,73.37
2023-04-28T14:54:24.126Z,73.38
2023-04-28T14:57:01.814Z,73.29
2023-04-28T14:59:33.670Z,72.87
2023-04-28T15:02:07.762Z,72.71
2023-04-28T15:04:46.738Z,71.96
2023-04-28T15:07:22.062Z,71.38
2023-04-28T15:09:56.009Z,70.88
2023-04-28T15:12:29.795Z,70.72
2023-04-28T15:15:01.847Z,70.62
2023-04-28T15:17:34.684Z,70.44
2023-04-28T15:20:07.610Z,70.19
2023-04-28T15:22:41.572Z,69.78
2023-04-28T15:25:15.740Z,69.32
2023-04-28T15:27:49.286Z,68.92
2023-04-28T15:30:21.395Z,68.81
2023-04-28T15:32:53.966Z,68.54
2023-04-28T15:35:26.071Z,68.20
2023-04-28T15:37:58.311Z,67.94
2023-04-28T15:40:31.354Z,67.49
2023-04-28T15:43:08.619Z,67.08
2023-04-28T15:45:40.868Z,66.79
2023-04-28T15:48:13.081Z,66.56
2023-04-28T15:50:49.323Z,66.57
2023-04-28T15:53:22.642Z,66.37
2023-04-28T15:55:54.614Z,66.32
2023-04-28T15:58:26.521Z,66.15
2023-04-28T16:01:02.489Z,66.04
2023-04-28T16:03:37.369Z,66.24
2023-04-28T16:06:11.074Z,66.40
2023-04-28T16:08:45.937Z,66.58
2023-04-28T16:11:33.822Z,66.55
2023-04-28T16:14:18.889Z,66.52
2023-04-28T16:17:03.394Z,66.44
2023-04-28T16:19:57.009Z,66.24
2023-04-28T16:22:33.047Z,66.11
2023-04-28T16:25:13.420Z,66.60
2023-04-28T16:27:52.868Z,67.20
2023-04-28T16:30:29.381Z,68.07
2023-04-28T16:33:05.254Z,68.58
2023-04-28T16:35:39.527Z,68.65
2023-04-28T16:38:15.828Z,68.61
2023-04-28T16:40:49.219Z,68.98
2023-04-28T16:43:24.452Z,69.44
2023-04-28T16:45:58.908Z,69.35
2023-04-28T16:48:33.168Z,69.87
2023-04-28T16:51:07.632Z,70.06
2023-04-28T16:53:42.036Z,70.03
2023-04-28T16:56:14.392Z,70.24
2023-04-28T16:58:50.803Z,69.90
2023-04-28T17:01:27.004Z,70.46
2023-04-28T17:04:03.256Z,70.82
2023-04-28T17:06:35.483Z,71.08
2023-04-28T17:09:11.749Z,71.16
2023-04-28T17:11:46.249Z,71.20
2023-04-28T17:14:23.760Z,71.03
2023-04-28T17:16:57.244Z,70.64
2023-04-28T17:19:30.498Z,70.68
2023-04-28T17:22:05.163Z,70.87
2023-04-28T17:24:37.342Z,70.44
2023-04-28T17:27:13.811Z,70.01
2023-04-28T17:29:49.648Z,70.08
2023-04-28T17:32:22.098Z,70.00
2023-04-28T17:34:56.686Z,69.77
2023-04-28T17:37:31.775Z,69.96
2023-04-28T17:40:12.834Z,69.71
2023-04-28T17:42:47.881Z,69.36
2023-04-28T17:45:26.696Z,69.15
2023-04-28T17:48:02.673Z,68.91
2023-04-28T17:50:37.407Z,68.55
2023-04-28T17:53:09.685Z,68.28
2023-04-28T17:55:44.104Z,68.36
2023-04-28T17:58:19.294Z,68.71
2023-04-28T18:00:51.230Z,68.95
2023-04-28T18:03:26.387Z,69.21
2023-04-28T18:09:04.133Z,69.31
2023-04-28T18:11:44.362Z,69.04
2023-04-28T18:14:20.556Z,68.73
2023-04-28T18:16:52.528Z,68.36
2023-04-28T18:19:26.297Z,68.01
2023-04-28T18:22:00.529Z,67.88
2023-04-28T18:24:33.932Z,67.64
2023-04-28T18:27:07.151Z,67.29
2023-04-28T18:29:38.991Z,67.01
2023-04-28T18:32:14.277Z,66.79
2023-04-28T18:34:50.228Z,66.56
2023-04-28T18:37:38.853Z,66.40
2023-04-28T18:40:21.540Z,66.45
2023-04-28T18:42:59.441Z,66.25
2023-04-28T18:45:34.786Z,66.06
2023-04-28T18:48:27.348Z,66.00
2023-04-28T18:51:03.468Z,65.88
2023-04-28T18:53:48.111Z,65.88
2023-04-28T19:00:09.339Z,65.65
2023-04-28T19:02:41.316Z,65.58
2023-04-28T19:05:28.073Z,65.60
2023-04-28T19:08:01.496Z,65.57
2023-04-28T19:10:34.606Z,65.60
2023-04-28T19:13:08.917Z,65.53
2023-04-28T19:15:46.456Z,65.30
2023-04-28T19:18:18.521Z,65.14
2023-04-28T19:20:52.853Z,65.00
2023-04-28T19:23:27.561Z,64.89
2023-04-28T19:26:03.252Z,64.87
2023-04-28T19:28:36.239Z,64.76
2023-04-28T19:31:09.640Z,64.67
2023-04-28T19:36:50.257Z,64.96
2023-04-28T19:39:26.872Z,64.97
2023-04-28T19:42:02.807Z,65.04
2023-04-28T19:44:36.443Z,65.08
2023-04-28T19:47:15.030Z,65.04
2023-04-28T19:49:55.534Z,65.01
2023-04-28T19:52:35.099Z,65.25
2023-04-28T19:55:21.771Z,65.41
2023-04-28T19:57:56.298Z,65.53
2023-04-28T20:00:32.679Z,65.60
2023-04-28T20:03:10.367Z,65.58
2023-04-28T20:05:43.680Z,66.08
2023-04-28T20:08:43.800Z,66.51
2023-04-28T20:11:17.521Z,66.44
2023-04-28T20:13:52.982Z,66.98
2023-04-28T20:16:26.141Z,66.99
2023-04-28T20:18:57.574Z,66.69
2023-04-28T20:21:29.638Z,66.37
2023-04-28T20:24:04.544Z,66.07
2023-04-28T20:26:37.436Z,65.98
2023-04-28T20:29:10.801Z,65.90
2023-04-28T20:31:45.195Z,65.84
2023-04-28T20:34:35.213Z,65.88
2023-04-28T20:37:11.187Z,65.83
2023-04-28T20:39:42.772Z,65.75
2023-04-28T20:42:14.237Z,65.79
2023-04-28T20:44:47.096Z,65.78
2023-04-28T20:47:18.918Z,65.80
2023-04-28T20:49:50.437Z,65.86
2023-04-28T20:52:25.233Z,65.80
2023-04-28T20:54:59.230Z,65.77
2023-04-28T20:57:30.781Z,65.64
2023-04-28T21:00:04.642Z,65.58
2023-04-28T21:02:38.685Z,65.45
2023-04-28T21:05:13.082Z,65.35
2023-04-28T21:07:45.397Z,65.42
2023-04-28T21:10:16.818Z,65.42
2023-04-28T21:12:58.267Z,65.34
2023-04-28T21:15:29.566Z,65.12
2023-04-28T21:18:01.138Z,65.04
2023-04-28T21:20:32.560Z,65.00
2023-04-28T21:23:07.546Z,64.97
2023-04-28T21:25:39.280Z,65.02
2023-04-28T21:28:11.885Z,64.94
2023-04-28T21:30:43.657Z,64.87
2023-04-28T21:33:15.067Z,64.73
2023-04-28T21:35:46.407Z,64.73
2023-04-28T21:38:17.837Z,64.88
2023-04-28T21:40:50.043Z,64.93
2023-04-28T21:43:22.601Z,65.06
2023-04-28T21:45:54.136Z,65.00
2023-04-28T21:48:25.709Z,64.99
2023-04-28T21:50:57.484Z,65.01
2023-04-28T21:53:29.631Z,64.95
2023-04-28T21:56:01.125Z,64.91
2023-04-28T21:58:32.752Z,64.88
2023-04-28T22:01:04.712Z,64.81
2023-04-28T22:03:36.845Z,64.85
2023-04-28T22:06:08.487Z,64.90
2023-04-28T22:08:40.097Z,64.79
2023-04-28T22:11:11.633Z,64.69
2023-04-28T22:13:43.194Z,64.68
2023-04-28T22:16:14.697Z,64.76
2023-04-28T22:18:46.340Z,64.83
2023-04-28T22:21:23.700Z,64.97
2023-04-28T22:24:18.189Z,65.15
2023-04-28T22:26:48.827Z,65.30
2023-04-28T22:29:20.964Z,65.27
2023-04-28T22:31:52.604Z,65.36
2023-04-28T22:34:24.186Z,65.41
2023-04-28T22:36:56.021Z,65.37
2023-04-28T22:39:27.579Z,65.39
2023-04-28T22:41:59.850Z,65.37
2023-04-28T22:44:31.475Z,65.38
2023-04-28T22:47:03.569Z,65.51
2023-04-28T22:49:35.118Z,65.76
2023-04-28T22:52:06.896Z,66.03
2023-04-28T22:54:41.905Z,66.25
2023-04-28T22:57:13.566Z,66.42
2023-04-28T22:59:45.851Z,66.65
2023-04-28T23:02:17.691Z,66.77
2023-04-28T23:04:49.263Z,66.64
2023-04-28T23:07:20.914Z,66.63
2023-04-28T23:09:52.755Z,66.55
2023-04-28T23:12:24.595Z,66.43
2023-04-28T23:14:56.684Z,66.42
2023-04-28T23:17:28.209Z,66.63
2023-04-28T23:19:59.956Z,66.81
2023-04-28T23:22:33.053Z,67.07
2023-04-28T23:25:04.753Z,67.20
2023-04-28T23:27:36.218Z,67.15
2023-04-28T23:30:11.833Z,67.21
2023-04-28T23:32:43.833Z,67.06
2023-04-28T23:35:15.468Z,66.95
2023-04-28T23:37:47.541Z,66.90
2023-04-28T23:40:19.297Z,66.98
2023-04-28T23:42:50.842Z,67.04
2023-04-28T23:45:22.771Z,67.09
2023-04-28T23:47:54.525Z,67.04
2023-04-28T23:50:26.219Z,66.97
2023-04-28T23:52:57.852Z,66.96
2023-04-28T23:55:29.408Z,66.90
2023-04-28T23:58:00.854Z,66.87
